Time;durP1;ratioP1;P1;durP2;ratioP2;P2;SDS_P1;SDS_P2;PMS_P1;PMS_P2;Temp;Humidity;BMP_temperature;BMP_pressure;BME280_temperature;BME280_humidity;BME280_pressure;Samples;Min_cycle;Max_cycle;Signal;HPM_P1;HPM_P2
2023/12/23 17:01:58;;;;;;;9.77;2.95;;;0.30;99.90;;;;;;4861097;29;20087;-78
2023/12/23 17:04:30;;;;;;;21.17;5.97;;;0.60;99.90;;;;;;4846860;29;20086;-78
2023/12/23 17:06:59;;;;;;;16.50;5.45;;;1.70;99.90;;;;;;4857259;29;20390;-78
2023/12/23 17:09:29;;;;;;;19.75;6.88;;;1.20;99.90;;;;;;4856968;29;20466;-77
2023/12/23 17:12:00;;;;;;;14.93;6.22;;;1.20;99.90;;;;;;4852550;29;20053;-78
2023/12/23 17:14:35;;;;;;;15.23;5.40;;;1.20;99.90;;;;;;4849191;29;20057;-79
2023/12/23 17:17:57;;;;;;;20.38;6.72;;;0.40;99.90;;;;;;4849178;29;20061;-79
2023/12/23 17:20:59;;;;;;;20.90;7.63;;;1.00;99.90;;;;;;4758712;30;20135;-79
2023/12/23 17:28:32;;;;;;;16.67;6.88;;;1.20;99.90;;;;;;4704021;30;20061;-80
2023/12/23 17:34:54;;;;;;;13.43;5.40;;;1.50;99.90;;;;;;4684869;30;20090;-79
2023/12/23 17:37:44;;;;;;;12.52;6.07;;;1.30;99.90;;;;;;4715006;30;20168;-78
2023/12/23 17:43:55;;;;;;;13.43;6.55;;;1.30;99.90;;;;;;4728327;30;20064;-78
2023/12/23 17:46:27;;;;;;;12.10;5.03;;;1.30;99.90;;;;;;4767038;30;20051;-78
2023/12/23 17:48:56;;;;;;;14.23;6.97;;;1.30;99.90;;;;;;4765451;30;20242;-78
2023/12/23 17:51:27;;;;;;;19.27;9.13;;;1.30;99.90;;;;;;4801231;29;20051;-78
2023/12/23 17:53:59;;;;;;;18.70;8.63;;;1.30;99.90;;;;;;4847524;29;20046;-78
2023/12/23 17:56:28;;;;;;;29.67;14.85;;;1.30;99.90;;;;;;4831204;29;20089;-78
2023/12/23 17:58:56;;;;;;;50.03;20.10;;;1.30;99.90;;;;;;4820508;29;20058;-77
2023/12/23 18:01:25;;;;;;;40.47;16.65;;;1.30;99.90;;;;;;4814201;29;20533;-77
2023/12/23 18:03:54;;;;;;;36.03;16.27;;;1.20;99.90;;;;;;4814692;29;20058;-77
2023/12/23 18:06:22;;;;;;;32.08;14.57;;;1.10;99.90;;;;;;4787260;29;20074;-77
2023/12/23 18:08:50;;;;;;;30.80;13.88;;;1.20;99.90;;;;;;4794058;29;20060;-77
2023/12/23 18:11:20;;;;;;;37.67;14.85;;;1.70;99.90;;;;;;4792302;29;20054;-77
2023/12/23 18:13:49;;;;;;;29.80;13.75;;;1.20;99.90;;;;;;4788187;29;20061;-77
2023/12/23 18:16:18;;;;;;;34.58;14.88;;;1.20;99.90;;;;;;4793236;29;20061;-77
2023/12/23 18:18:46;;;;;;;31.67;14.57;;;1.20;99.90;;;;;;4780466;29;20845;-77
2023/12/23 18:21:15;;;;;;;39.30;16.15;;;1.30;99.90;;;;;;4803153;29;20071;-77
2023/12/23 18:23:44;;;;;;;41.22;18.73;;;1.30;99.90;;;;;;4815387;29;20089;-77
2023/12/23 18:26:12;;;;;;;43.38;21.10;;;1.20;99.90;;;;;;4821038;29;20061;-77
2023/12/23 18:28:42;;;;;;;48.33;20.45;;;1.30;99.90;;;;;;4812083;29;20525;-77
2023/12/23 18:31:11;;;;;;;47.13;18.92;;;1.20;99.90;;;;;;4818133;29;20046;-77
2023/12/23 18:33:40;;;;;;;37.75;18.15;;;1.20;99.90;;;;;;4825345;29;20171;-77
2023/12/23 18:36:09;;;;;;;34.30;15.38;;;1.20;99.90;;;;;;4824158;29;20129;-77
2023/12/23 18:38:37;;;;;;;30.25;13.63;;;1.20;99.90;;;;;;4827084;29;20057;-77
2023/12/23 18:41:06;;;;;;;35.38;13.77;;;1.20;99.90;;;;;;4801580;29;20520;-77
2023/12/23 18:43:36;;;;;;;29.27;12.02;;;1.20;99.90;;;;;;4801777;29;20065;-77
2023/12/23 18:46:06;;;;;;;27.58;11.88;;;1.30;99.90;;;;;;4822706;29;20122;-77
2023/12/23 18:48:34;;;;;;;30.90;13.43;;;1.30;99.90;;;;;;4818727;29;20062;-77
2023/12/23 18:51:04;;;;;;;29.67;14.10;;;1.30;99.90;;;;;;4822816;29;20138;-78
2023/12/23 18:53:34;;;;;;;33.63;14.60;;;1.30;99.90;;;;;;4809667;29;22292;-78
2023/12/23 18:56:03;;;;;;;40.80;18.58;;;1.30;99.90;;;;;;4836414;29;20057;-78
2023/12/23 18:58:33;;;;;;;44.60;21.98;;;1.30;99.90;;;;;;4826961;29;20088;-78
2023/12/23 19:01:02;;;;;;;52.40;21.55;;;1.30;99.90;;;;;;4840663;29;20061;-78
2023/12/23 19:03:33;;;;;;;54.50;23.90;;;1.20;99.90;;;;;;4847628;29;20054;-78
2023/12/23 19:06:03;;;;;;;51.53;22.95;;;2.20;99.90;;;;;;4816043;29;20058;-78
2023/12/23 19:08:33;;;;;;;68.57;28.90;;;1.30;99.90;;;;;;4843686;29;20062;-78
2023/12/23 19:11:05;;;;;;;75.95;31.60;;;1.20;99.90;;;;;;4827882;29;20065;-78
2023/12/23 19:13:33;;;;;;;76.97;32.08;;;1.20;99.90;;;;;;4811096;29;20065;-78
2023/12/23 19:16:02;;;;;;;89.45;37.40;;;1.30;99.90;;;;;;4825615;29;20117;-78
2023/12/23 19:18:32;;;;;;;90.78;38.38;;;1.30;99.90;;;;;;4841576;29;20062;-78
2023/12/23 19:21:01;;;;;;;67.18;31.10;;;1.20;99.90;;;;;;4823252;29;20052;-78
2023/12/23 19:23:31;;;;;;;57.72;28.08;;;0.90;99.90;;;;;;4843863;29;20081;-78
2023/12/23 19:26:03;;;;;;;163.10;57.30;;;1.30;99.90;;;;;;4848474;29;20056;-78
2023/12/23 19:28:33;;;;;;;68.55;29.63;;;1.30;99.90;;;;;;4842730;29;20061;-78
2023/12/23 19:31:08;;;;;;;77.97;30.05;;;1.30;99.90;;;;;;4838172;29;20054;-78
2023/12/23 19:33:51;;;;;;;;;;;1.30;99.90;;;;;;4861296;29;20042;-78
2023/12/23 19:36:24;;;;;;;84.70;31.77;;;1.20;99.90;;;;;;4858274;29;19924;-78
2023/12/23 19:38:55;;;;;;;47.47;21.85;;;0.80;99.90;;;;;;4857644;29;20070;-78
2023/12/23 19:44:24;;;;;;;40.25;20.48;;;1.50;99.90;;;;;;4844516;29;20073;-79
2023/12/23 19:47:07;;;;;;;180.27;61.75;;;1.20;99.90;;;;;;4862516;29;20042;-78
2023/12/23 19:52:56;;;;;;;128.68;57.78;;;1.30;99.90;;;;;;4865887;29;20046;-79
2023/12/23 19:56:02;;;;;;;42.55;23.60;;;1.10;99.90;;;;;;4832009;29;20069;-78
2023/12/23 19:58:45;;;;;;;24.83;11.93;;;1.10;99.90;;;;;;4827899;29;20050;-78
2023/12/23 20:01:31;;;;;;;46.25;18.95;;;1.20;99.90;;;;;;4799654;29;20108;-78
2023/12/23 20:04:20;;;;;;;50.40;22.08;;;1.40;99.90;;;;;;4774857;30;20055;-78
2023/12/23 20:07:44;;;;;;;61.60;29.43;;;1.20;99.90;;;;;;4738353;30;20033;-79
2023/12/23 20:13:49;;;;;;;33.42;14.48;;;1.20;99.90;;;;;;4688509;30;20066;-79
2023/12/23 20:24:41;;;;;;;37.33;18.58;;;1.00;99.90;;;;;;4579933;31;20060;-79
2023/12/23 20:27:45;;;;;;;38.85;17.55;;;1.10;99.90;;;;;;4561257;31;20049;-81
2023/12/23 20:35:02;;;;;;;32.58;14.88;;;0.40;99.90;;;;;;4596161;31;20131;-79
2023/12/23 21:55:55;;;;;;;19.88;8.85;;;1.20;99.90;;;;;;5394110;24;20599;-80
2023/12/23 21:58:24;;;;;;;24.05;9.43;;;1.40;99.90;;;;;;4848876;29;20062;-80
2023/12/23 22:07:31;;;;;;;45.65;24.75;;;1.30;99.90;;;;;;5885798;24;20063;31
2023/12/23 22:10:00;;;;;;;14.48;6.60;;;1.70;99.90;;;;;;4783111;29;20086;-80
2023/12/23 22:12:30;;;;;;;20.83;11.10;;;1.10;99.90;;;;;;4777121;29;20055;-79
2023/12/23 22:14:59;;;;;;;26.08;16.20;;;1.30;99.90;;;;;;4745593;29;20932;-78
2023/12/23 22:17:27;;;;;;;24.60;13.65;;;1.20;99.90;;;;;;4744286;29;20090;-78
2023/12/23 22:19:56;;;;;;;13.77;6.22;;;1.30;99.90;;;;;;4760395;29;20476;-78
2023/12/23 22:22:24;;;;;;;15.27;7.55;;;1.20;99.90;;;;;;4750688;29;20063;-78
2023/12/23 22:24:53;;;;;;;18.85;8.60;;;1.20;99.90;;;;;;4744334;29;20825;-77
2023/12/23 22:27:21;;;;;;;16.55;8.05;;;1.20;99.90;;;;;;4726368;29;20062;-77
2023/12/23 22:29:51;;;;;;;25.08;12.27;;;1.30;99.90;;;;;;4739456;29;20134;-77
2023/12/23 22:32:20;;;;;;;29.20;11.85;;;1.20;99.90;;;;;;4723561;29;20731;-76
2023/12/23 22:34:52;;;;;;;24.30;12.38;;;1.20;99.90;;;;;;4748783;29;20059;-75
2023/12/23 22:37:21;;;;;;;15.45;7.65;;;1.20;99.90;;;;;;4738588;29;20059;-76
2023/12/23 22:39:49;;;;;;;11.93;6.25;;;1.20;99.90;;;;;;4736506;29;20474;-76
2023/12/23 22:42:18;;;;;;;11.60;5.40;;;1.30;99.90;;;;;;4724206;29;20062;-77
2023/12/23 22:44:46;;;;;;;12.80;4.85;;;1.30;99.90;;;;;;4740716;29;20262;-78
2023/12/23 22:47:16;;;;;;;11.15;3.70;;;1.30;99.90;;;;;;4765835;29;20055;-78
2023/12/23 22:50:02;;;;;;;7.75;4.00;;;1.30;99.90;;;;;;4796161;30;20052;-80
2023/12/23 23:16:55;;;;;;;9.93;3.17;;;1.30;99.90;;;;;;4827053;24;20065;-79
2023/12/23 23:19:24;;;;;;;8.88;3.72;;;1.50;99.90;;;;;;4803635;29;22180;-79
2023/12/23 23:21:54;;;;;;;9.63;3.95;;;1.30;99.90;;;;;;4803539;29;20085;-78
2023/12/23 23:24:25;;;;;;;10.07;3.85;;;1.40;99.90;;;;;;4805821;29;20065;-78
2023/12/23 23:26:54;;;;;;;8.98;3.95;;;1.40;99.90;;;;;;4837460;29;20449;-79
2023/12/23 23:29:23;;;;;;;10.80;5.10;;;1.70;99.90;;;;;;4827509;29;20145;-79
2023/12/23 23:31:54;;;;;;;12.57;4.07;;;1.30;99.90;;;;;;4806161;29;20061;-79
2023/12/23 23:34:23;;;;;;;10.15;4.57;;;1.20;99.90;;;;;;4843662;29;20052;-80
2023/12/23 23:52:04;;;;;;;9.05;3.22;;;1.30;99.90;;;;;;4904798;24;20121;-78
2023/12/23 23:54:38;;;;;;;9.57;3.50;;;1.30;99.90;;;;;;4801214;29;20054;-77
2023/12/23 23:57:06;;;;;;;5.60;2.50;;;1.30;99.90;;;;;;4806009;29;20053;-77
2023/12/23 23:59:35;;;;;;;6.72;2.97;;;1.30;99.90;;;;;;4771579;29;20058;-77
